Terminal Aerodrome Forecast
Issued by NWS Tuscon, AZ

Home | Current Version | Previous Version | Text Only | Print | Product List | Glossary On
Versions: 1 2 3 4 5 6 7 8 9 10 11 12 13 14 15 16
000
FTUS45 KTWC 021737
TAFDUG
TAF
KDUG 021737Z 0218/0318 VRB04KT P6SM FEW060 SCT100
     FM022000 24009KT P6SM VCTS BKN050CB BKN090
      TEMPO 0221/0224 VRB15G35KT 3SM TSRA FEW030 BKN040CB OVC100
     FM030200 36005KT P6SM VCSH BKN050 OVC090
     FM031000 VRB04KT P6SM SCT090 BKN150=

USA.gov is the U.S. government's official web portal to all federal, state and local government web resources and services.